createdAt,value
2023-05-16T00:00:26.639Z,8.7275
2023-05-16T00:01:28.739Z,8.7311
2023-05-16T00:02:31.529Z,8.6680
2023-05-16T00:03:33.625Z,8.5374
2023-05-16T00:04:35.703Z,8.4470
2023-05-16T00:05:37.948Z,8.4108
2023-05-16T00:06:39.298Z,8.4073
2023-05-16T00:07:41.582Z,8.4298
2023-05-16T00:08:42.937Z,8.4593
2023-05-16T00:09:44.305Z,8.4849
2023-05-16T00:11:47.708Z,8.4923
2023-05-16T00:12:49.904Z,8.4961
2023-05-16T00:14:53.106Z,8.5615
2023-05-16T00:15:55.154Z,8.6021
2023-05-16T00:16:56.500Z,8.6759
2023-05-16T00:17:58.102Z,8.7380
2023-05-16T00:19:00.064Z,8.7429
2023-05-16T00:20:01.438Z,8.7981
2023-05-16T00:21:02.757Z,8.8942
2023-05-16T00:22:04.738Z,8.9612
2023-05-16T00:23:06.058Z,9.0103
2023-05-16T00:24:07.425Z,9.0625
2023-05-16T00:25:09.349Z,9.1039
2023-05-16T00:26:11.280Z,9.0514
2023-05-16T00:27:12.916Z,9.0422
2023-05-16T00:29:15.467Z,9.0000
2023-05-16T00:30:16.816Z,9.0336
2023-05-16T00:32:19.535Z,9.0431
2023-05-16T00:33:21.550Z,9.1273
2023-05-16T00:35:24.116Z,9.1028
2023-05-16T00:36:25.468Z,9.0968
2023-05-16T00:37:26.839Z,9.0813
2023-05-16T00:38:29.066Z,9.0752
2023-05-16T00:39:31.055Z,9.0935
2023-05-16T00:40:33.034Z,9.0253
2023-05-16T00:41:34.408Z,8.9740
2023-05-16T00:42:36.508Z,8.9652
2023-05-16T00:43:38.785Z,8.9747
2023-05-16T00:44:40.474Z,9.0029
2023-05-16T00:46:43.184Z,9.0057
2023-05-16T00:47:44.567Z,9.0065
2023-05-16T00:48:45.983Z,9.0275
2023-05-16T00:49:47.363Z,9.0988
2023-05-16T00:54:53.642Z,9.1886
2023-05-16T00:55:54.996Z,9.1173
2023-05-16T00:56:56.386Z,9.0903
2023-05-16T00:57:58.528Z,9.1405
2023-05-16T00:59:00.548Z,9.0525
2023-05-16T01:00:02.554Z,9.0057
2023-05-16T01:02:05.837Z,8.9679
2023-05-16T01:03:07.885Z,8.9696
2023-05-16T01:04:10.155Z,8.9598
2023-05-16T01:05:11.672Z,8.9207
2023-05-16T01:07:15.395Z,8.9214
2023-05-16T01:08:16.781Z,8.9228
2023-05-16T01:09:18.196Z,8.9190
2023-05-16T01:10:19.623Z,8.9058
2023-05-16T01:11:21.654Z,8.8941
2023-05-16T01:12:23.698Z,8.8964
2023-05-16T01:13:25.088Z,8.8928
2023-05-16T01:15:28.809Z,8.9006
2023-05-16T01:16:31.210Z,8.9010
2023-05-16T01:17:32.664Z,8.8972
2023-05-16T01:18:34.748Z,8.9124
2023-05-16T01:19:36.762Z,8.8998
2023-05-16T01:20:39.492Z,8.9345
2023-05-16T01:21:41.505Z,8.9615
2023-05-16T01:22:42.873Z,8.9831
2023-05-16T01:23:44.257Z,8.9806
2023-05-16T01:24:46.272Z,8.9801
2023-05-16T01:25:49.070Z,9.0070
2023-05-16T01:26:51.211Z,9.0172
2023-05-16T01:28:54.756Z,9.0373
2023-05-16T01:29:57.080Z,9.0523
2023-05-16T01:30:58.512Z,9.0242
2023-05-16T01:32:00.707Z,9.0405
2023-05-16T01:33:02.747Z,9.0350
2023-05-16T01:34:04.785Z,9.0435
2023-05-16T01:35:06.187Z,9.0636
2023-05-16T01:36:08.187Z,9.0962
2023-05-16T01:37:10.307Z,9.1094
2023-05-16T01:38:11.709Z,9.0815
2023-05-16T01:40:14.959Z,9.0942
2023-05-16T01:41:16.358Z,9.1174
2023-05-16T01:42:18.824Z,9.1722
2023-05-16T01:44:22.099Z,9.2143
2023-05-16T01:45:24.297Z,9.1826
2023-05-16T01:46:25.779Z,9.1161
2023-05-16T01:48:29.312Z,9.0992
2023-05-16T01:52:34.518Z,9.1527
2023-05-16T01:53:35.912Z,9.1825
2023-05-16T01:55:39.209Z,9.2494
2023-05-16T01:56:41.188Z,9.2519
2023-05-16T01:57:42.592Z,9.2555
2023-05-16T01:58:44.573Z,9.3286
2023-05-16T01:59:46.855Z,9.3032
2023-05-16T02:00:48.268Z,9.2948
2023-05-16T02:02:51.124Z,9.2322
2023-05-16T02:03:52.531Z,9.2117
2023-05-16T02:04:53.895Z,9.2229
2023-05-16T02:05:55.486Z,9.2281
2023-05-16T02:06:56.860Z,9.2782
2023-05-16T02:07:59.259Z,9.2456
2023-05-16T02:09:01.269Z,9.2365
2023-05-16T02:10:02.698Z,9.2521
2023-05-16T02:12:06.701Z,9.2480
2023-05-16T02:13:08.098Z,9.2105
2023-05-16T02:14:09.494Z,9.2495
2023-05-16T02:15:11.560Z,9.2379
2023-05-16T02:16:13.888Z,9.2617
2023-05-16T02:17:15.888Z,9.2721
2023-05-16T02:18:17.333Z,9.2790
2023-05-16T02:19:19.056Z,9.2437
2023-05-16T02:20:21.318Z,9.2805
2023-05-16T02:21:23.271Z,9.2250
2023-05-16T02:22:25.281Z,9.2194
2023-05-16T02:23:27.447Z,9.2448
2023-05-16T02:24:29.342Z,9.2849
2023-05-16T02:25:30.725Z,9.3150
2023-05-16T02:26:32.168Z,9.2653
2023-05-16T02:28:35.090Z,9.2407
2023-05-16T02:29:37.160Z,9.2560
2023-05-16T02:30:38.605Z,9.2557
2023-05-16T02:31:40.813Z,9.2564
2023-05-16T02:32:42.829Z,9.2804
2023-05-16T02:33:44.243Z,9.2945
2023-05-16T02:34:45.629Z,9.2718
2023-05-16T02:36:49.933Z,9.2458
2023-05-16T02:37:52.029Z,9.2473
2023-05-16T02:38:53.984Z,9.2428
2023-05-16T02:40:58.085Z,9.2499
2023-05-16T02:42:00.411Z,9.2714
2023-05-16T02:43:01.799Z,9.2808
2023-05-16T02:44:03.793Z,9.3414
2023-05-16T02:45:05.775Z,9.3322
2023-05-16T02:46:07.232Z,9.3247
2023-05-16T02:47:08.638Z,9.3336
2023-05-16T02:48:10.077Z,9.3525
2023-05-16T02:49:12.285Z,9.3442
2023-05-16T02:50:13.690Z,9.3342
2023-05-16T02:52:16.471Z,9.3750
2023-05-16T02:53:17.865Z,9.3687
2023-05-16T02:54:19.277Z,9.3893
2023-05-16T02:55:22.679Z,9.3305
2023-05-16T02:56:21.444Z,9.4161
2023-05-16T02:57:23.497Z,9.4663
2023-05-16T02:58:25.505Z,9.4303
2023-05-16T02:59:27.622Z,9.5076
2023-05-16T03:00:29.113Z,9.5249
2023-05-16T03:01:31.142Z,9.4678
2023-05-16T03:02:33.325Z,9.4350
2023-05-16T03:03:35.574Z,9.4230
2023-05-16T03:04:36.978Z,9.4502
2023-05-16T03:05:38.324Z,9.4686
2023-05-16T03:06:39.694Z,9.3965
2023-05-16T03:07:41.876Z,9.3483
2023-05-16T03:08:43.236Z,9.2714
2023-05-16T03:09:44.658Z,9.2401
2023-05-16T03:10:46.602Z,9.2564
2023-05-16T03:11:48.742Z,9.2728
2023-05-16T03:12:50.712Z,9.2931
2023-05-16T03:13:52.092Z,9.2860
2023-05-16T03:15:56.518Z,9.2985
2023-05-16T03:16:58.602Z,9.2940
2023-05-16T03:18:00.045Z,9.3613
2023-05-16T03:19:02.138Z,9.3276
2023-05-16T03:20:04.190Z,9.4003
2023-05-16T03:21:05.698Z,9.4090
2023-05-16T03:22:07.119Z,9.4713
2023-05-16T03:23:08.526Z,9.4695
2023-05-16T03:24:10.177Z,9.5015
2023-05-16T03:25:11.616Z,9.5696
2023-05-16T03:26:13.014Z,9.5851
2023-05-16T03:27:14.628Z,9.5140
2023-05-16T03:28:16.034Z,9.5304
2023-05-16T03:29:17.436Z,9.5623
2023-05-16T03:30:18.864Z,9.5084
2023-05-16T03:31:20.297Z,9.5393
2023-05-16T03:32:21.736Z,9.5047
2023-05-16T03:33:23.178Z,9.5127
2023-05-16T03:34:24.608Z,9.4929
2023-05-16T03:36:27.368Z,9.5839
2023-05-16T03:37:28.744Z,9.6143
2023-05-16T03:38:30.130Z,9.5286
2023-05-16T03:39:32.498Z,9.4390
2023-05-16T03:40:34.738Z,9.3956
2023-05-16T03:41:36.163Z,9.4082
2023-05-16T03:42:38.437Z,9.4396
2023-05-16T03:43:40.720Z,9.3809
2023-05-16T03:44:42.827Z,9.3475
2023-05-16T03:45:45.825Z,9.4079
2023-05-16T03:46:48.131Z,9.4522
2023-05-16T03:47:49.625Z,9.4943
2023-05-16T03:48:52.674Z,9.5183
2023-05-16T03:51:55.339Z,9.3253
2023-05-16T03:52:56.907Z,9.2368
2023-05-16T03:53:59.264Z,9.1920
2023-05-16T03:55:00.815Z,9.1251
2023-05-16T03:56:02.437Z,9.1220
2023-05-16T03:57:04.842Z,9.1024
2023-05-16T03:59:08.170Z,9.1150
2023-05-16T04:00:09.598Z,9.1104
2023-05-16T04:01:11.045Z,9.0984
2023-05-16T04:03:13.965Z,9.1590
2023-05-16T04:04:15.844Z,9.1774
2023-05-16T04:06:19.423Z,9.2340
2023-05-16T04:07:22.565Z,9.2241
2023-05-16T04:10:25.891Z,9.2053
2023-05-16T04:11:29.285Z,9.1924
2023-05-16T04:12:31.492Z,9.2022
2023-05-16T04:13:33.331Z,9.2472
2023-05-16T04:14:35.433Z,9.2579
2023-05-16T04:20:42.410Z,9.4378
2023-05-16T04:21:43.788Z,9.4241
2023-05-16T04:22:45.195Z,9.4372
2023-05-16T04:23:47.251Z,9.4472
2023-05-16T04:24:49.383Z,9.5009
2023-05-16T04:25:51.468Z,9.5441
2023-05-16T04:26:52.862Z,9.5534
2023-05-16T04:27:54.259Z,9.5143
2023-05-16T04:28:56.341Z,9.5474
2023-05-16T04:29:58.461Z,9.5232
2023-05-16T04:32:03.185Z,9.5903
2023-05-16T04:34:04.406Z,9.6822
2023-05-16T04:35:06.446Z,9.6761
2023-05-16T04:36:08.591Z,9.6807
2023-05-16T04:37:09.978Z,9.7321
2023-05-16T04:38:12.082Z,9.7262
2023-05-16T04:39:14.258Z,9.7636
2023-05-16T04:40:16.287Z,9.8376
2023-05-16T04:41:17.687Z,9.7593
2023-05-16T04:42:19.133Z,9.7120
2023-05-16T04:43:21.201Z,9.7102
2023-05-16T04:44:22.634Z,9.7412
2023-05-16T04:45:24.125Z,9.7766
2023-05-16T04:46:26.268Z,9.7838
2023-05-16T04:47:28.236Z,9.8076
2023-05-16T04:48:30.729Z,9.8577
2023-05-16T04:49:32.736Z,9.8693
2023-05-16T04:50:34.136Z,9.8400
2023-05-16T04:51:36.133Z,9.8903
2023-05-16T04:52:38.182Z,9.8749
2023-05-16T04:53:39.536Z,9.8908
2023-05-16T04:54:40.933Z,9.9130
2023-05-16T04:55:42.967Z,9.9648
2023-05-16T04:56:44.406Z,9.9110
2023-05-16T04:57:45.798Z,9.9312
2023-05-16T04:58:47.399Z,10.0165
2023-05-16T04:59:49.483Z,10.0495
2023-05-16T05:00:51.471Z,10.1340
2023-05-16T05:01:52.930Z,10.1607
2023-05-16T05:02:54.705Z,10.1514
2023-05-16T05:03:56.133Z,10.0047
2023-05-16T05:04:57.571Z,9.9866
2023-05-16T05:05:58.929Z,9.9972
2023-05-16T05:07:00.459Z,10.0852
2023-05-16T05:08:01.874Z,10.1226
2023-05-16T05:09:04.568Z,10.1621
2023-05-16T05:10:07.119Z,10.2117
2023-05-16T05:11:09.304Z,10.2688
2023-05-16T05:13:12.824Z,10.2767
2023-05-16T05:14:14.831Z,10.3410
2023-05-16T05:15:16.238Z,10.3941
2023-05-16T05:16:18.326Z,10.3610
2023-05-16T05:17:22.200Z,10.3756
2023-05-16T05:18:21.478Z,10.1956
2023-05-16T05:19:23.534Z,10.2215
2023-05-16T05:20:25.520Z,10.2848
2023-05-16T05:21:27.579Z,10.2108
2023-05-16T05:22:29.144Z,10.1367
2023-05-16T05:23:31.093Z,10.1714
2023-05-16T05:24:32.487Z,10.1434
2023-05-16T05:25:35.844Z,10.1483
2023-05-16T05:26:35.489Z,10.2073
2023-05-16T05:28:38.502Z,10.2603
2023-05-16T05:29:39.849Z,10.3498
2023-05-16T05:30:43.195Z,10.3778
2023-05-16T05:31:42.511Z,10.3938
2023-05-16T05:32:43.878Z,10.4840
2023-05-16T05:33:45.849Z,10.5202
2023-05-16T05:34:47.877Z,10.5411
2023-05-16T05:35:50.074Z,10.6416
2023-05-16T05:37:53.825Z,10.7481
2023-05-16T05:38:56.324Z,10.7226
2023-05-16T05:39:58.346Z,10.7600
2023-05-16T05:41:00.321Z,10.7768
2023-05-16T05:43:03.193Z,10.7921
2023-05-16T05:44:04.594Z,10.8338
2023-05-16T05:45:06.007Z,10.8860
2023-05-16T05:46:07.453Z,10.9386
2023-05-16T05:47:09.091Z,10.8905
2023-05-16T05:48:10.825Z,10.9501
2023-05-16T05:49:12.889Z,10.9019
2023-05-16T05:50:15.098Z,10.8657
2023-05-16T05:51:16.484Z,10.8466
2023-05-16T05:53:19.766Z,10.7535
2023-05-16T05:54:21.153Z,10.8658
2023-05-16T05:55:22.523Z,10.9047
2023-05-16T05:56:24.526Z,10.9832
2023-05-16T05:57:26.646Z,11.0011
2023-05-16T05:58:28.946Z,11.1200
2023-05-16T06:00:32.560Z,11.1752
2023-05-16T06:01:34.733Z,11.0594
2023-05-16T06:02:36.387Z,10.8038
2023-05-16T06:07:42.749Z,10.9174
2023-05-16T06:08:44.130Z,11.0005
2023-05-16T06:09:46.896Z,10.9492
2023-05-16T06:10:48.322Z,11.0381
2023-05-16T06:11:49.737Z,10.9386
2023-05-16T06:12:51.776Z,10.8314
2023-05-16T06:13:53.202Z,10.7397
2023-05-16T06:14:55.106Z,10.4879
2023-05-16T06:15:56.521Z,10.5241
2023-05-16T06:16:58.005Z,10.4651
2023-05-16T06:17:59.542Z,10.3845
2023-05-16T06:19:01.081Z,10.5411
2023-05-16T06:20:03.251Z,10.4999
2023-05-16T06:21:05.313Z,10.5292
2023-05-16T06:23:08.834Z,10.6336
2023-05-16T06:24:10.872Z,10.5867
2023-05-16T06:25:12.937Z,10.6051
2023-05-16T06:26:15.237Z,10.6362
2023-05-16T06:27:16.725Z,10.6930
2023-05-16T06:28:18.805Z,10.6854
2023-05-16T06:29:20.871Z,10.6527
2023-05-16T06:30:23.000Z,10.5720
2023-05-16T06:31:25.453Z,10.5740
2023-05-16T06:32:27.583Z,10.5296
2023-05-16T06:33:30.130Z,10.6021
2023-05-16T06:35:32.882Z,10.5985
2023-05-16T06:36:34.273Z,10.6925
2023-05-16T06:38:37.862Z,10.7207
2023-05-16T06:39:40.006Z,10.6516
2023-05-16T06:40:42.191Z,10.6954
2023-05-16T06:41:43.568Z,10.7663
2023-05-16T06:43:47.342Z,11.0291
2023-05-16T06:44:49.666Z,11.0203
2023-05-16T06:45:51.065Z,11.0254
2023-05-16T06:46:53.336Z,11.0204
2023-05-16T06:47:57.222Z,11.1975
2023-05-16T06:48:56.183Z,11.1059
2023-05-16T06:49:58.248Z,11.1048
2023-05-16T06:51:00.367Z,11.0705
2023-05-16T06:52:02.492Z,11.1117
2023-05-16T06:53:04.786Z,11.1009
2023-05-16T07:00:16.659Z,10.7740
2023-05-16T07:01:18.429Z,10.8974
2023-05-16T07:04:22.672Z,10.8488
2023-05-16T07:05:24.161Z,10.8825
2023-05-16T07:06:25.581Z,10.7697
2023-05-16T07:08:28.269Z,10.9589
2023-05-16T07:09:29.663Z,10.8127
2023-05-16T07:11:33.000Z,10.8848
2023-05-16T07:12:35.088Z,10.9436
2023-05-16T07:13:37.180Z,10.8656
2023-05-16T07:14:39.226Z,10.7589
2023-05-16T07:16:41.078Z,10.8114
2023-05-16T07:17:43.516Z,10.9297
2023-05-16T07:18:45.644Z,11.0800
2023-05-16T07:19:47.097Z,11.2661
2023-05-16T07:25:55.500Z,11.5446
2023-05-16T07:26:56.928Z,11.7229
2023-05-16T07:31:02.401Z,11.7330
2023-05-16T07:32:03.900Z,11.7501
2023-05-16T07:33:05.374Z,11.7155
2023-05-16T07:35:08.148Z,11.4529
2023-05-16T07:36:16.818Z,11.3541
2023-05-16T07:37:11.158Z,11.3517
2023-05-16T07:39:13.875Z,11.4430
2023-05-16T07:40:15.283Z,11.4644
2023-05-16T07:41:16.710Z,11.5471
2023-05-16T07:42:18.136Z,11.4054
2023-05-16T07:43:19.569Z,11.1779
2023-05-16T07:44:21.010Z,11.3698
2023-05-16T07:45:22.464Z,11.5567
2023-05-16T07:46:23.891Z,11.6753
2023-05-16T07:47:25.382Z,11.7801
2023-05-16T07:49:28.175Z,12.0146
2023-05-16T07:50:29.581Z,12.4400
2023-05-16T07:52:33.652Z,13.3338
2023-05-16T07:53:35.088Z,13.5005
2023-05-16T07:54:36.536Z,14.3234
2023-05-16T07:56:39.635Z,14.3858
2023-05-16T07:57:41.056Z,14.0981
2023-05-16T07:58:42.521Z,14.0489
2023-05-16T07:59:44.021Z,14.2891
2023-05-16T08:00:45.459Z,14.4297
2023-05-16T08:01:46.891Z,13.6985
2023-05-16T08:02:48.470Z,13.8205
2023-05-16T08:03:50.021Z,14.0358
2023-05-16T08:04:51.485Z,13.7238
2023-05-16T08:05:52.976Z,13.3280
2023-05-16T08:06:54.408Z,13.4546
2023-05-16T08:07:55.994Z,13.3374
2023-05-16T08:09:58.716Z,13.4459
2023-05-16T08:11:00.174Z,13.3883
2023-05-16T08:12:01.558Z,13.4005
2023-05-16T08:14:05.126Z,13.1807
2023-05-16T08:15:07.341Z,13.0490
2023-05-16T08:16:08.801Z,13.2926
2023-05-16T08:17:10.404Z,13.3776
2023-05-16T08:18:12.611Z,13.3399
2023-05-16T08:19:15.036Z,13.4639
2023-05-16T08:20:16.417Z,13.5601
2023-05-16T08:21:18.748Z,13.4290
2023-05-16T08:22:20.969Z,13.3677
2023-05-16T08:23:22.411Z,13.2072
2023-05-16T08:24:23.800Z,12.8953
2023-05-16T08:25:26.335Z,13.0640
2023-05-16T08:26:27.953Z,13.1294
2023-05-16T08:28:30.909Z,12.9491
2023-05-16T08:29:32.312Z,13.0194
2023-05-16T08:30:34.665Z,12.9287
2023-05-16T08:31:37.215Z,12.6555
2023-05-16T08:32:38.653Z,12.9107
2023-05-16T08:33:40.103Z,12.7591
2023-05-16T08:34:42.258Z,12.7807
2023-05-16T08:35:44.564Z,12.9293
2023-05-16T08:36:47.566Z,12.9108
2023-05-16T08:37:50.192Z,12.7211
2023-05-16T08:38:51.777Z,12.7960
2023-05-16T08:39:53.222Z,12.7333
2023-05-16T08:40:54.688Z,12.8458
2023-05-16T08:41:56.138Z,12.8777
2023-05-16T08:42:58.608Z,12.9629
2023-05-16T08:44:00.065Z,12.8489
2023-05-16T08:45:01.511Z,12.9394
2023-05-16T08:46:03.118Z,12.9054
2023-05-16T08:47:05.318Z,12.8045
2023-05-16T08:48:09.531Z,12.6472
2023-05-16T08:49:08.906Z,12.7763
2023-05-16T08:50:11.135Z,13.0210
2023-05-16T08:51:12.505Z,12.8667
2023-05-16T08:52:13.224Z,13.0567
2023-05-16T08:53:16.598Z,13.1347
2023-05-16T08:54:17.980Z,13.1540
2023-05-16T08:55:19.945Z,13.1851
2023-05-16T08:56:22.631Z,13.0138
2023-05-16T08:57:24.620Z,12.9689
2023-05-16T08:58:26.447Z,13.0377
2023-05-16T09:03:34.676Z,13.8769
2023-05-16T09:05:34.412Z,13.6496
2023-05-16T09:06:35.791Z,13.5046
2023-05-16T09:07:37.179Z,13.6515
2023-05-16T09:08:38.586Z,13.6931
2023-05-16T09:09:41.222Z,13.5899
2023-05-16T09:10:43.429Z,13.7152
2023-05-16T09:11:45.509Z,13.7650
2023-05-16T09:12:46.919Z,13.7378
2023-05-16T09:13:48.959Z,13.9649
2023-05-16T09:14:50.376Z,13.8289
2023-05-16T09:15:51.786Z,13.6221
2023-05-16T09:17:55.127Z,13.7009
2023-05-16T09:18:57.768Z,13.4249
2023-05-16T09:19:59.262Z,13.4307
2023-05-16T09:21:00.635Z,13.4237
2023-05-16T09:23:03.281Z,13.6461
2023-05-16T09:24:04.712Z,13.5864
2023-05-16T09:25:08.602Z,13.5629
2023-05-16T09:26:07.659Z,13.6472
2023-05-16T09:27:09.057Z,13.5290
2023-05-16T09:29:11.631Z,13.5122
2023-05-16T09:30:13.025Z,13.3708
2023-05-16T09:31:15.835Z,13.2696
2023-05-16T09:37:21.337Z,12.9019
2023-05-16T09:59:49.876Z,11.1357
2023-05-16T10:00:51.293Z,11.1720
2023-05-16T10:01:52.789Z,11.2203
2023-05-16T10:02:54.389Z,11.2258
2023-05-16T10:04:19.051Z,11.2732
2023-05-16T10:04:57.949Z,11.2453
2023-05-16T10:06:00.005Z,11.3049
2023-05-16T10:07:01.421Z,11.3717
2023-05-16T10:08:02.853Z,11.3935
2023-05-16T10:09:04.235Z,11.4216
2023-05-16T10:10:05.863Z,11.3813
2023-05-16T10:11:07.306Z,11.3090
2023-05-16T10:12:09.160Z,11.4000
2023-05-16T10:13:11.476Z,11.4296
2023-05-16T10:14:12.893Z,11.3403
2023-05-16T10:15:14.372Z,11.3521
2023-05-16T10:17:17.750Z,11.4955
2023-05-16T10:18:19.805Z,11.5494
2023-05-16T10:19:21.269Z,11.6080
2023-05-16T10:20:22.885Z,11.6573
2023-05-16T10:21:24.939Z,11.7483
2023-05-16T10:22:26.363Z,11.8766
2023-05-16T10:23:27.775Z,11.6726
2023-05-16T10:24:29.588Z,11.6192
2023-05-16T10:25:31.888Z,11.7124
2023-05-16T10:26:34.164Z,11.7667
2023-05-16T10:27:36.065Z,11.8694
2023-05-16T10:29:50.384Z,12.0984
2023-05-16T10:30:41.863Z,12.0372
2023-05-16T10:31:43.909Z,12.1116
2023-05-16T10:32:45.380Z,12.1859
2023-05-16T10:33:46.776Z,12.0865
2023-05-16T10:34:48.183Z,11.9359
2023-05-16T10:35:49.661Z,12.0214
2023-05-16T10:36:51.050Z,12.0834
2023-05-16T10:37:52.472Z,11.9978
2023-05-16T10:38:53.894Z,11.8620
2023-05-16T10:39:55.285Z,11.8369
2023-05-16T10:40:57.385Z,11.5229
2023-05-16T10:41:59.394Z,11.2581
2023-05-16T10:43:00.813Z,11.1729
2023-05-16T10:44:02.222Z,11.2220
2023-05-16T10:45:05.951Z,11.2034
2023-05-16T10:46:05.304Z,11.1469
2023-05-16T10:47:06.728Z,10.9513
2023-05-16T10:48:08.307Z,10.9127
2023-05-16T10:49:09.868Z,10.8209
2023-05-16T10:50:11.340Z,10.7402
2023-05-16T10:51:12.772Z,10.6319
2023-05-16T10:53:15.571Z,10.4490
2023-05-16T10:54:17.039Z,10.3155
2023-05-16T10:55:18.468Z,10.3054
2023-05-16T10:56:19.900Z,10.2678
2023-05-16T10:57:22.403Z,10.2358
2023-05-16T10:58:23.891Z,10.2501
2023-05-16T10:59:25.412Z,10.3371
2023-05-16T11:00:26.864Z,10.4684
2023-05-16T11:01:28.347Z,10.6035
2023-05-16T11:02:30.210Z,10.6633
2023-05-16T11:04:33.065Z,10.9389
2023-05-16T11:05:34.549Z,11.0618
2023-05-16T11:06:36.015Z,11.1861
2023-05-16T11:07:37.446Z,11.2467
2023-05-16T11:08:38.926Z,11.2496
2023-05-16T11:09:40.411Z,11.2913
2023-05-16T11:10:41.832Z,11.2914
2023-05-16T11:11:44.840Z,11.1724
2023-05-16T11:12:46.073Z,11.0903
2023-05-16T11:13:47.506Z,11.0471
2023-05-16T11:14:49.182Z,10.9730
2023-05-16T11:15:50.669Z,10.9444
2023-05-16T11:17:53.543Z,11.0619
2023-05-16T11:18:55.069Z,11.0319
2023-05-16T11:19:56.582Z,10.9342
2023-05-16T11:20:58.100Z,10.9467
2023-05-16T11:21:59.590Z,10.9528
2023-05-16T11:23:01.074Z,10.9570
2023-05-16T11:24:02.575Z,10.9289
2023-05-16T11:25:04.085Z,10.9080
2023-05-16T11:26:05.617Z,10.9347
2023-05-16T11:29:09.846Z,10.9677
2023-05-16T11:30:11.335Z,10.9424
2023-05-16T11:31:12.891Z,10.9054
2023-05-16T11:32:14.361Z,10.8892
2023-05-16T11:33:15.869Z,10.8921
2023-05-16T11:34:17.471Z,10.8796
2023-05-16T11:35:18.982Z,10.8907
2023-05-16T11:36:20.467Z,10.7621
2023-05-16T11:37:21.896Z,10.5954
2023-05-16T11:38:23.389Z,10.6257
2023-05-16T11:39:24.962Z,10.7013
2023-05-16T11:40:26.457Z,10.7801
2023-05-16T11:41:27.985Z,10.7187
2023-05-16T11:42:29.517Z,10.6259
2023-05-16T11:43:30.979Z,10.5032
2023-05-16T11:44:32.467Z,10.6316
2023-05-16T11:45:33.981Z,10.6687
2023-05-16T11:46:35.527Z,10.5826
2023-05-16T11:47:37.014Z,10.5224
2023-05-16T11:48:38.606Z,10.5739
2023-05-16T11:49:40.080Z,10.6383
2023-05-16T11:50:41.617Z,10.6147
2023-05-16T11:51:43.086Z,10.6404
2023-05-16T11:52:44.562Z,10.5291
2023-05-16T11:53:46.120Z,10.4958
2023-05-16T11:54:47.625Z,10.5230
2023-05-16T11:55:52.508Z,10.4667
2023-05-16T11:56:50.780Z,10.4563
2023-05-16T11:59:55.020Z,10.5286
2023-05-16T12:00:56.494Z,10.4819
2023-05-16T12:01:57.986Z,10.4986
2023-05-16T12:02:59.549Z,10.5751
2023-05-16T12:04:01.198Z,10.5915
2023-05-16T12:05:02.915Z,10.4960
2023-05-16T12:06:04.415Z,10.4255
2023-05-16T12:07:05.924Z,10.3869
2023-05-16T12:08:07.422Z,10.4452
2023-05-16T12:10:10.248Z,10.5907
2023-05-16T12:11:11.783Z,10.5879
2023-05-16T12:12:13.249Z,10.5833
2023-05-16T12:13:14.708Z,10.5159
2023-05-16T12:14:16.199Z,10.5370
2023-05-16T12:15:17.694Z,10.5030
2023-05-16T12:16:19.170Z,10.5572
2023-05-16T12:17:20.746Z,10.6592
2023-05-16T12:18:22.347Z,10.8162
2023-05-16T12:19:23.938Z,10.6879
2023-05-16T12:20:25.429Z,10.7413
2023-05-16T12:21:26.921Z,10.9340
2023-05-16T12:22:28.392Z,11.0485
2023-05-16T12:23:29.881Z,11.0947
2023-05-16T12:24:31.421Z,11.1466
2023-05-16T12:25:33.020Z,11.1681
2023-05-16T12:26:34.485Z,11.1911
2023-05-16T12:27:35.992Z,11.2994
2023-05-16T12:28:37.495Z,11.0563
2023-05-16T12:29:38.996Z,11.0441
2023-05-16T12:30:40.512Z,10.8962
2023-05-16T12:32:43.562Z,10.9299
2023-05-16T12:33:45.401Z,10.6746
2023-05-16T12:34:46.913Z,10.6545
2023-05-16T12:35:48.394Z,10.6208
2023-05-16T12:36:49.910Z,10.6114
2023-05-16T12:37:51.416Z,10.5352
2023-05-16T12:38:52.912Z,10.4869
2023-05-16T12:39:54.456Z,10.5206
2023-05-16T12:40:55.977Z,10.5923
2023-05-16T12:41:57.518Z,10.5919
2023-05-16T12:42:59.039Z,10.6163
2023-05-16T12:44:00.493Z,10.6472
2023-05-16T12:45:01.970Z,10.6277
2023-05-16T12:46:03.473Z,10.4269
2023-05-16T12:47:04.935Z,10.4714
2023-05-16T12:49:07.851Z,10.5806
2023-05-16T12:50:09.388Z,10.6160
2023-05-16T12:51:10.846Z,10.6860
2023-05-16T12:52:12.371Z,10.6877
2023-05-16T12:53:13.843Z,10.6706
2023-05-16T12:54:15.353Z,10.5917
2023-05-16T12:55:16.873Z,10.5706
2023-05-16T12:56:18.395Z,10.5245
2023-05-16T12:57:19.890Z,10.4979
2023-05-16T12:58:21.470Z,10.5291
2023-05-16T12:59:22.978Z,10.6444
2023-05-16T13:00:24.486Z,10.5506
2023-05-16T13:01:26.097Z,10.4789
2023-05-16T13:02:27.631Z,10.4227
2023-05-16T13:03:29.247Z,10.1731
2023-05-16T13:04:30.773Z,10.2408
2023-05-16T13:05:32.350Z,10.2385
2023-05-16T13:06:48.785Z,10.2941
2023-05-16T13:07:35.476Z,10.3710
2023-05-16T13:08:36.988Z,10.3785
2023-05-16T13:09:38.496Z,10.3658
2023-05-16T13:11:41.344Z,10.5734
2023-05-16T13:12:42.946Z,10.5867
2023-05-16T13:13:44.439Z,10.5465
2023-05-16T13:14:45.938Z,10.4944
2023-05-16T13:15:47.437Z,10.5107
2023-05-16T13:16:48.879Z,10.5089
2023-05-16T13:17:50.362Z,10.5254
2023-05-16T13:18:51.863Z,10.5211
2023-05-16T13:19:53.299Z,10.5033
2023-05-16T13:20:54.799Z,10.6105
2023-05-16T13:21:56.262Z,10.5431
2023-05-16T13:22:57.963Z,10.4434
2023-05-16T13:23:59.439Z,10.5300
2023-05-16T13:25:00.925Z,10.5346
2023-05-16T13:26:02.391Z,10.5767
2023-05-16T13:27:03.902Z,10.5833
2023-05-16T13:28:05.431Z,10.6713
2023-05-16T13:29:06.916Z,10.4912
2023-05-16T13:30:08.468Z,10.5862
2023-05-16T13:31:10.007Z,10.6820
2023-05-16T13:34:14.135Z,10.7871
2023-05-16T13:35:15.670Z,10.8035
2023-05-16T13:36:17.740Z,10.9454
2023-05-16T13:37:19.265Z,10.9865
2023-05-16T13:38:20.794Z,11.1273
2023-05-16T13:39:22.325Z,11.2854
2023-05-16T13:40:23.777Z,11.3577
2023-05-16T13:41:25.276Z,11.4384
2023-05-16T13:42:26.794Z,11.5960
2023-05-16T13:43:28.298Z,11.6674
2023-05-16T13:44:29.845Z,11.4602
2023-05-16T13:45:31.410Z,11.3361
2023-05-16T13:46:32.965Z,11.3171
2023-05-16T13:47:34.562Z,11.4113
2023-05-16T13:48:36.114Z,11.3940
2023-05-16T13:49:37.606Z,11.2937
2023-05-16T13:51:39.254Z,11.2415
2023-05-16T13:54:43.319Z,10.9356
2023-05-16T13:55:44.802Z,10.9438
2023-05-16T13:56:46.278Z,10.8483
2023-05-16T13:57:47.828Z,10.6850
2023-05-16T13:59:02.213Z,10.7406
2023-05-16T14:00:52.819Z,10.7812
2023-05-16T14:01:54.667Z,10.6976
2023-05-16T14:02:56.885Z,10.6283
2023-05-16T14:03:58.542Z,10.6938
2023-05-16T14:05:00.045Z,10.7003
2023-05-16T14:06:01.501Z,10.6074
2023-05-16T14:07:03.182Z,10.6383
2023-05-16T14:08:04.669Z,10.6128
2023-05-16T14:09:06.141Z,10.5470
2023-05-16T14:10:07.739Z,10.5919
2023-05-16T14:11:09.304Z,10.5792
2023-05-16T14:12:10.774Z,10.5871
2023-05-16T14:13:12.327Z,10.5440
2023-05-16T14:14:13.919Z,10.6142
2023-05-16T14:15:15.397Z,10.6938
2023-05-16T14:16:16.989Z,10.7909
2023-05-16T14:17:18.461Z,10.7847
2023-05-16T14:18:19.994Z,10.7633
2023-05-16T14:19:21.591Z,10.7797
2023-05-16T14:20:23.176Z,10.7027
2023-05-16T14:21:24.658Z,10.7008
2023-05-16T14:22:26.191Z,10.7688
2023-05-16T14:23:27.709Z,10.7518
2023-05-16T14:26:31.851Z,10.8652
2023-05-16T14:27:33.353Z,10.8790
2023-05-16T14:28:34.829Z,10.8156
2023-05-16T14:29:36.322Z,10.8473
2023-05-16T14:30:37.816Z,10.8326
2023-05-16T14:31:39.362Z,10.8281
2023-05-16T14:32:40.959Z,10.7891
2023-05-16T14:33:42.450Z,10.7507
2023-05-16T14:34:43.968Z,10.7368
2023-05-16T14:35:45.457Z,10.7397
2023-05-16T14:36:47.035Z,10.6947
2023-05-16T14:37:48.649Z,10.6392
2023-05-16T14:38:50.167Z,10.6887
2023-05-16T14:39:51.664Z,10.6654
2023-05-16T14:40:53.160Z,10.5875
2023-05-16T14:41:54.707Z,10.5701
2023-05-16T14:42:56.207Z,10.5909
2023-05-16T14:43:57.786Z,10.6081
2023-05-16T14:46:00.921Z,10.6017
2023-05-16T14:47:02.451Z,10.5440
2023-05-16T14:48:05.531Z,10.5746
2023-05-16T14:49:06.368Z,10.5904
2023-05-16T14:50:07.907Z,10.4874
2023-05-16T14:51:09.405Z,10.5385
2023-05-16T14:52:10.931Z,10.5418
2023-05-16T14:53:12.473Z,10.4880
2023-05-16T14:54:13.948Z,10.4845
2023-05-16T14:55:15.516Z,10.4629
2023-05-16T14:56:17.070Z,10.5453
2023-05-16T14:57:18.603Z,10.5665